Time;durP1;ratioP1;P1;durP2;ratioP2;P2;SDS_P1;SDS_P2;PMS_P1;PMS_P2;Temp;Humidity;BMP_temperature;BMP_pressure;BME280_temperature;BME280_humidity;BME280_pressure;Samples;Min_cycle;Max_cycle;Signal;HPM_P1;HPM_P2
2022/01/15 00:00:27;;;;;;;145.43;24.60;;;0.50;99.90;;;;;;5029381;28;20057;-64
2022/01/15 00:02:56;;;;;;;145.55;25.98;;;0.50;99.90;;;;;;5030882;28;20054;-64
2022/01/15 00:05:24;;;;;;;271.20;31.20;;;0.50;99.90;;;;;;5062113;28;20046;-64
2022/01/15 00:07:51;;;;;;;155.15;24.80;;;0.50;99.90;;;;;;5029488;28;20049;-64
2022/01/15 00:10:25;;;;;;;162.25;26.60;;;0.50;99.90;;;;;;5030254;28;20049;-63
2022/01/15 00:12:58;;;;;;;104.75;23.55;;;0.40;99.90;;;;;;5030616;28;20041;-66
2022/01/15 00:15:30;;;;;;;108.00;24.17;;;0.50;99.90;;;;;;5030338;28;20484;-64
2022/01/15 00:18:05;;;;;;;115.47;23.50;;;0.40;99.90;;;;;;5030426;28;20053;-64
2022/01/15 00:20:33;;;;;;;156.70;25.00;;;0.40;99.90;;;;;;5029751;28;20414;-65
2022/01/15 00:23:00;;;;;;;143.27;24.35;;;0.40;99.90;;;;;;5025553;28;20046;-63
2022/01/15 00:25:30;;;;;;;159.05;23.67;;;0.40;99.90;;;;;;5026227;28;20052;-64
2022/01/15 00:28:00;;;;;;;139.73;23.48;;;0.30;99.90;;;;;;5029164;28;20575;-64
2022/01/15 00:30:29;;;;;;;132.85;24.83;;;0.30;99.90;;;;;;5028226;28;20045;-66
2022/01/15 00:32:56;;;;;;;65.82;19.40;;;0.20;99.90;;;;;;5029787;28;20041;-64
2022/01/15 00:35:26;;;;;;;77.45;21.80;;;0.20;99.90;;;;;;5029763;28;20053;-63
2022/01/15 00:37:54;;;;;;;86.47;24.20;;;0.20;99.90;;;;;;5026662;28;20046;-64
2022/01/15 00:40:22;;;;;;;94.38;21.20;;;0.10;99.90;;;;;;5025795;28;20596;-63
2022/01/15 00:42:49;;;;;;;110.00;24.67;;;0.10;99.90;;;;;;5024193;28;20382;-64
2022/01/15 00:45:18;;;;;;;94.65;22.80;;;0.10;99.90;;;;;;5028593;28;20053;-63
2022/01/15 00:47:46;;;;;;;131.53;24.47;;;0.10;99.90;;;;;;5024551;28;20054;-65
2022/01/15 00:50:14;;;;;;;84.38;23.35;;;0.00;99.90;;;;;;5027427;28;20056;-63
2022/01/15 00:52:42;;;;;;;114.35;25.50;;;0.00;99.90;;;;;;5026551;28;20042;-64
2022/01/15 00:55:12;;;;;;;69.18;21.98;;;0.00;99.90;;;;;;5027078;28;20069;-63
2022/01/15 00:57:40;;;;;;;86.35;22.30;;;-0.10;99.90;;;;;;5025851;28;20053;-63
2022/01/15 01:00:10;;;;;;;68.78;22.23;;;-0.10;99.90;;;;;;5027611;28;20512;-64
2022/01/15 01:02:38;;;;;;;98.65;23.20;;;-0.10;99.90;;;;;;5010766;28;20488;-64
2022/01/15 01:05:06;;;;;;;82.53;24.42;;;-0.10;99.90;;;;;;5025049;28;20056;-63
2022/01/15 01:07:34;;;;;;;128.18;26.60;;;-0.10;99.90;;;;;;5026999;28;20056;-63
2022/01/15 01:23:43;;;;;;;193.32;25.15;;;-0.30;99.90;;;;;;5023736;28;20060;-67
2022/01/15 01:26:24;;;;;;;106.55;25.63;;;-0.30;99.90;;;;;;5033750;28;20052;-71
2022/01/15 01:30:05;;;;;;;148.73;25.90;;;-0.30;99.90;;;;;;5019998;28;20057;-64
2022/01/15 01:34:35;;;;;;;194.85;26.83;;;-0.40;99.90;;;;;;5027402;28;20037;-64
2022/01/15 01:37:13;;;;;;;210.57;27.08;;;-0.40;99.90;;;;;;5028840;28;20049;-64
2022/01/15 01:39:51;;;;;;;98.95;24.65;;;-0.40;99.90;;;;;;5027196;28;20037;-63
2022/01/15 01:45:15;;;;;;;95.25;21.88;;;-0.50;99.90;;;;;;5026746;28;20053;-64
2022/01/15 01:47:44;;;;;;;73.38;22.90;;;-0.50;99.90;;;;;;5026494;28;20041;-64
2022/01/15 01:50:13;;;;;;;67.05;21.83;;;-0.50;99.90;;;;;;5028203;28;20049;-66
2022/01/15 01:52:43;;;;;;;67.90;22.10;;;-0.60;99.90;;;;;;5027791;28;20045;-63
2022/01/15 01:55:12;;;;;;;59.88;21.98;;;-0.60;99.90;;;;;;5020136;28;20220;-63
2022/01/15 01:57:42;;;;;;;58.53;22.23;;;-0.60;99.90;;;;;;5024350;28;20049;-65
2022/01/15 02:00:12;;;;;;;63.72;22.35;;;-0.70;99.90;;;;;;5027078;28;20500;-64
2022/01/15 02:02:50;;;;;;;73.78;21.92;;;-0.70;99.90;;;;;;5026617;28;20053;-63
2022/01/15 02:05:18;;;;;;;;;;;-0.70;99.90;;;;;;5028472;28;20045;-64
2022/01/15 02:07:47;;;;;;;49.30;18.08;;;-0.80;99.90;;;;;;5010764;28;19928;-65
2022/01/15 02:10:18;;;;;;;47.13;19.73;;;-0.80;99.90;;;;;;5025728;28;20505;-66
2022/01/15 02:12:48;;;;;;;50.78;21.10;;;-0.90;99.90;;;;;;5026310;28;20057;-67
2022/01/15 02:15:19;;;;;;;48.20;20.50;;;-0.90;99.90;;;;;;5027826;28;20050;-65
2022/01/15 02:17:47;;;;;;;53.03;21.85;;;-0.90;99.90;;;;;;5056698;28;20413;-64
2022/01/15 02:25:50;;;;;;;58.75;21.35;;;-1.00;99.90;;;;;;5024880;28;20555;-63
2022/01/15 02:28:21;;;;;;;54.22;20.05;;;-1.10;99.90;;;;;;5027638;28;20064;-63
2022/01/15 02:30:57;;;;;;;51.28;20.40;;;-1.00;99.90;;;;;;5023921;28;20057;-64
2022/01/15 02:33:26;;;;;;;55.63;20.20;;;-1.00;99.90;;;;;;5020533;28;20064;-63
2022/01/15 02:35:54;;;;;;;59.38;22.02;;;-1.00;99.90;;;;;;5030578;28;20054;-64
2022/01/15 02:38:22;;;;;;;53.90;21.10;;;-1.10;99.90;;;;;;5028866;28;20049;-63
2022/01/15 02:40:50;;;;;;;51.10;19.25;;;-1.00;99.90;;;;;;5024092;28;20045;-64
2022/01/15 02:43:27;;;;;;;45.72;19.95;;;-1.10;99.90;;;;;;5029374;28;20038;-65
2022/01/15 02:45:56;;;;;;;56.78;20.60;;;-1.10;99.90;;;;;;5029132;28;20045;-63
2022/01/15 02:48:27;;;;;;;46.05;19.13;;;-1.10;99.90;;;;;;5028919;28;20477;-63
2022/01/15 02:50:56;;;;;;;49.88;19.27;;;-1.10;99.90;;;;;;5030707;28;20056;-63
2022/01/15 02:53:24;;;;;;;46.80;19.55;;;-1.10;99.90;;;;;;5030486;28;20042;-63
2022/01/15 02:55:54;;;;;;;49.38;20.27;;;-1.10;99.90;;;;;;5022027;28;20050;-64
2022/01/15 02:58:22;;;;;;;;;;;-1.20;99.90;;;;;;5020213;28;20133;-63
2022/01/15 03:00:51;;;;;;;46.65;19.10;;;-1.20;99.90;;;;;;5029110;28;20372;-64
2022/01/15 03:03:19;;;;;;;52.35;19.88;;;-1.20;99.90;;;;;;5031551;28;20045;-64
2022/01/15 03:05:47;;;;;;;45.78;20.00;;;-1.20;99.90;;;;;;5033384;28;20037;-64
2022/01/15 03:08:14;;;;;;;54.90;20.52;;;-1.20;99.90;;;;;;5034368;28;20057;-63
2022/01/15 03:10:42;;;;;;;44.50;19.73;;;-1.20;99.90;;;;;;5021363;28;20038;-63
2022/01/15 03:13:12;;;;;;;52.83;20.75;;;-1.20;99.90;;;;;;5030047;28;20045;-63
2022/01/15 03:15:40;;;;;;;54.58;20.05;;;-1.20;99.90;;;;;;5024943;28;20481;-63
2022/01/15 03:18:08;;;;;;;53.00;21.20;;;-1.20;99.90;;;;;;5034220;28;20053;-63
2022/01/15 03:20:36;;;;;;;58.67;20.73;;;-1.20;99.90;;;;;;5033806;28;20056;-63
2022/01/15 03:23:03;;;;;;;51.33;20.33;;;-1.20;99.90;;;;;;5033916;28;20061;-63
2022/01/15 03:25:31;;;;;;;53.50;20.05;;;-1.30;99.90;;;;;;5034620;28;20045;-63
2022/01/15 03:27:58;;;;;;;51.95;21.60;;;-1.30;99.90;;;;;;5033237;28;20052;-63
2022/01/15 03:30:26;;;;;;;45.50;20.08;;;-1.30;99.90;;;;;;5032885;28;20053;-63
2022/01/15 03:32:54;;;;;;;55.83;19.95;;;-1.30;99.90;;;;;;5033492;28;20049;-63
2022/01/15 03:35:22;;;;;;;46.13;19.35;;;-1.30;99.90;;;;;;5034460;28;20049;-64
2022/01/15 03:37:49;;;;;;;49.28;20.40;;;-1.30;99.90;;;;;;5033913;28;20061;-63
2022/01/15 03:40:17;;;;;;;55.53;21.50;;;-1.30;99.90;;;;;;5032613;28;20049;-63
2022/01/15 03:42:45;;;;;;;46.25;17.95;;;-1.30;99.90;;;;;;5034135;28;20045;-63
2022/01/15 03:45:14;;;;;;;52.47;20.67;;;-1.30;99.90;;;;;;5033154;28;20050;-63
2022/01/15 03:47:45;;;;;;;54.15;20.02;;;-1.30;99.90;;;;;;5031956;28;20037;-63
2022/01/15 03:50:14;;;;;;;49.20;18.52;;;-1.30;99.90;;;;;;5030807;28;20049;-63
2022/01/15 03:52:42;;;;;;;46.47;18.58;;;-1.40;99.90;;;;;;5033370;28;20049;-63
2022/01/15 03:55:12;;;;;;;49.13;20.10;;;-1.40;99.90;;;;;;5032346;28;20614;-63
2022/01/15 03:57:40;;;;;;;53.38;21.27;;;-1.40;99.90;;;;;;5033393;28;20045;-63
2022/01/15 04:00:11;;;;;;;48.03;20.90;;;-1.40;99.90;;;;;;5033282;28;20057;-63
2022/01/15 04:02:41;;;;;;;57.25;21.75;;;-1.40;99.90;;;;;;5032491;28;20048;-63
2022/01/15 04:05:11;;;;;;;53.47;21.55;;;-1.40;99.90;;;;;;5032291;28;20045;-63
2022/01/15 04:07:39;;;;;;;52.53;21.15;;;-1.40;99.90;;;;;;5033293;28;20061;-63
2022/01/15 04:10:09;;;;;;;50.78;21.08;;;-1.40;99.90;;;;;;5033143;28;20065;-64
2022/01/15 04:12:37;;;;;;;53.92;20.73;;;-1.40;99.90;;;;;;5031027;28;20053;-63
2022/01/15 04:15:06;;;;;;;51.20;20.92;;;-1.40;99.90;;;;;;5032996;28;20046;-64
2022/01/15 04:17:34;;;;;;;;;;;-1.40;99.90;;;;;;5032778;28;20037;-64
2022/01/15 04:20:03;;;;;;;44.35;17.83;;;-1.40;99.90;;;;;;5032163;28;19928;-63
2022/01/15 04:22:31;;;;;;;53.35;20.40;;;-1.40;99.90;;;;;;5032998;28;20046;-64
2022/01/15 04:24:59;;;;;;;53.67;19.35;;;-1.50;99.90;;;;;;5032831;28;20041;-63
2022/01/15 04:27:28;;;;;;;49.50;19.10;;;-1.50;99.90;;;;;;5031880;28;20061;-65
2022/01/15 04:29:56;;;;;;;42.15;18.63;;;-1.50;99.90;;;;;;5032714;28;20049;-62
2022/01/15 04:32:24;;;;;;;45.50;18.95;;;-1.50;99.90;;;;;;5033733;28;20041;-63
2022/01/15 04:34:51;;;;;;;49.33;20.27;;;-1.50;99.90;;;;;;5032951;28;20064;-62
2022/01/15 04:37:22;;;;;;;51.42;20.70;;;-1.50;99.90;;;;;;5032134;28;20049;-63
2022/01/15 04:39:51;;;;;;;50.53;21.10;;;-1.60;99.90;;;;;;5033398;28;20042;-62
2022/01/15 04:42:22;;;;;;;50.50;19.92;;;-1.60;99.90;;;;;;5029717;28;20046;-62
2022/01/15 04:44:50;;;;;;;51.85;21.08;;;-1.60;99.90;;;;;;5032248;28;20488;-63
2022/01/15 04:47:17;;;;;;;53.05;20.58;;;-1.50;99.90;;;;;;5030950;28;20654;-63
2022/01/15 04:49:45;;;;;;;44.63;20.02;;;-1.60;99.90;;;;;;5031593;28;20045;-63
2022/01/15 04:52:12;;;;;;;53.65;21.42;;;-1.60;99.90;;;;;;5032373;28;20049;-63
2022/01/15 04:54:40;;;;;;;51.80;21.08;;;-1.50;99.90;;;;;;5032366;28;20046;-63
2022/01/15 04:57:08;;;;;;;57.58;21.17;;;-1.60;99.90;;;;;;5032163;28;20053;-62
2022/01/15 04:59:36;;;;;;;57.50;21.00;;;-1.60;99.90;;;;;;5032336;28;20034;-62
2022/01/15 05:02:04;;;;;;;51.22;21.38;;;-1.60;99.90;;;;;;5030574;28;20431;-62
2022/01/15 05:04:31;;;;;;;48.30;20.15;;;-1.60;99.90;;;;;;5032042;28;20053;-63
2022/01/15 05:06:59;;;;;;;46.60;19.98;;;-1.60;99.90;;;;;;5032107;28;20045;-63
2022/01/15 05:09:27;;;;;;;53.08;20.13;;;-1.60;99.90;;;;;;5032128;28;20053;-63
2022/01/15 05:12:01;;;;;;;46.78;18.20;;;-1.60;99.90;;;;;;5029644;28;20495;-63
2022/01/15 05:14:30;;;;;;;41.90;18.00;;;-1.60;99.90;;;;;;5032080;28;20046;-63
2022/01/15 05:16:57;;;;;;;46.78;18.95;;;-1.60;99.90;;;;;;5022662;28;20510;-63
2022/01/15 05:19:25;;;;;;;39.15;18.15;;;-1.70;99.90;;;;;;5024509;28;20049;-63
2022/01/15 05:21:55;;;;;;;50.70;19.17;;;-1.70;99.90;;;;;;5031219;28;20045;-63
2022/01/15 05:24:29;;;;;;;42.75;18.08;;;-1.70;99.90;;;;;;5030452;28;20055;-63
2022/01/15 05:26:57;;;;;;;42.42;18.55;;;-1.70;99.90;;;;;;5031605;28;20515;-63
2022/01/15 05:29:24;;;;;;;48.33;18.58;;;-1.80;99.90;;;;;;5030748;28;20049;-63
2022/01/15 05:31:52;;;;;;;45.45;19.10;;;-1.80;99.90;;;;;;5031576;28;20049;-63
2022/01/15 05:34:20;;;;;;;40.85;17.80;;;-1.80;99.90;;;;;;5031884;28;20045;-62
2022/01/15 05:36:47;;;;;;;54.85;21.17;;;-1.80;99.90;;;;;;5029975;28;20061;-64
2022/01/15 05:39:15;;;;;;;51.35;21.42;;;-1.80;99.90;;;;;;5032377;28;20042;-66
2022/01/15 05:41:42;;;;;;;58.47;21.85;;;-1.80;99.90;;;;;;5030672;28;20050;-65
2022/01/15 05:44:10;;;;;;;61.22;23.48;;;-1.80;99.90;;;;;;5031899;28;20054;-63
2022/01/15 05:46:38;;;;;;;50.25;21.45;;;-1.70;99.90;;;;;;5031815;28;20045;-63
2022/01/15 05:49:06;;;;;;;54.30;22.08;;;-1.70;99.90;;;;;;5009858;28;20060;-63
2022/01/15 05:51:33;;;;;;;67.18;24.40;;;-1.60;99.90;;;;;;5028313;28;20069;-66
2022/01/15 05:54:03;;;;;;;66.03;24.02;;;-1.60;99.90;;;;;;5028448;28;20511;-63
2022/01/15 05:56:31;;;;;;;60.50;22.85;;;-1.60;99.90;;;;;;5027273;28;20048;-63
2022/01/15 05:58:59;;;;;;;59.05;21.23;;;-1.50;99.90;;;;;;5026381;28;20041;-63
2022/01/15 06:01:26;;;;;;;61.45;23.17;;;-1.40;99.90;;;;;;5025008;28;20049;-63
2022/01/15 06:03:54;;;;;;;66.82;25.50;;;-1.40;99.90;;;;;;5016361;28;20049;-63
2022/01/15 06:06:22;;;;;;;64.13;25.17;;;-1.30;99.90;;;;;;5023949;28;20038;-64
2022/01/15 06:08:50;;;;;;;56.47;21.75;;;-1.30;99.90;;;;;;5024698;28;20045;-64
2022/01/15 06:11:18;;;;;;;53.35;20.35;;;-1.20;99.90;;;;;;5025235;28;20044;-63
2022/01/15 06:13:46;;;;;;;50.63;19.88;;;-1.20;99.90;;;;;;5027335;28;20045;-64
2022/01/15 06:16:14;;;;;;;52.17;21.25;;;-1.30;99.90;;;;;;5027491;28;20386;-63
2022/01/15 06:18:42;;;;;;;48.25;19.98;;;-1.30;99.90;;;;;;5023241;28;20045;-63
2022/01/15 06:21:10;;;;;;;70.97;21.63;;;-1.30;99.90;;;;;;5009213;28;20541;-63
2022/01/15 06:23:37;;;;;;;75.28;21.73;;;-1.40;99.90;;;;;;5022989;28;20041;-64
2022/01/15 06:26:05;;;;;;;76.20;20.35;;;-1.30;99.90;;;;;;5024826;28;20069;-63
2022/01/15 06:28:33;;;;;;;62.38;21.48;;;-1.30;99.90;;;;;;5026959;28;20068;-63
2022/01/15 06:31:01;;;;;;;90.47;21.70;;;-1.30;99.90;;;;;;5027275;28;20076;-63
2022/01/15 06:33:32;;;;;;;78.07;19.77;;;-1.20;99.90;;;;;;5024716;28;20049;-63
2022/01/15 06:36:00;;;;;;;95.65;22.60;;;-1.20;99.90;;;;;;5024857;28;20052;-63
2022/01/15 06:38:28;;;;;;;53.13;19.77;;;-1.10;99.90;;;;;;5023789;28;20512;-63
2022/01/15 06:40:55;;;;;;;69.88;19.27;;;-1.10;99.90;;;;;;5023543;28;20576;-63
2022/01/15 06:43:23;;;;;;;106.40;20.00;;;-1.10;99.90;;;;;;5021151;28;20400;-63
2022/01/15 06:45:51;;;;;;;79.68;20.80;;;-1.10;99.90;;;;;;5031125;28;20436;-63
2022/01/15 06:48:19;;;;;;;76.18;21.60;;;-1.00;99.90;;;;;;5030279;28;20049;-63
2022/01/15 06:50:47;;;;;;;95.93;21.63;;;-1.00;99.90;;;;;;5032385;28;20046;-63
2022/01/15 06:53:14;;;;;;;92.80;21.17;;;-1.00;99.90;;;;;;5029484;28;20877;-63
2022/01/15 06:55:43;;;;;;;78.18;19.85;;;-1.00;99.90;;;;;;5031185;28;20041;-63
2022/01/15 06:58:10;;;;;;;80.35;20.52;;;-1.00;99.90;;;;;;5030522;28;20050;-63
2022/01/15 07:00:38;;;;;;;80.47;20.08;;;-1.10;99.90;;;;;;5029767;28;20503;-63
2022/01/15 07:03:06;;;;;;;51.70;18.33;;;-1.10;99.90;;;;;;5028001;28;20049;-63
2022/01/15 07:05:34;;;;;;;46.92;18.05;;;-1.10;99.90;;;;;;5027300;28;20056;-63
2022/01/15 07:08:02;;;;;;;42.58;18.40;;;-1.10;99.90;;;;;;5029827;28;20234;-64
2022/01/15 07:10:30;;;;;;;57.35;17.08;;;-1.10;99.90;;;;;;5013309;28;20046;-63
2022/01/15 07:12:58;;;;;;;59.42;18.27;;;-1.20;99.90;;;;;;5031073;28;20045;-63
2022/01/15 07:15:26;;;;;;;53.92;18.60;;;-1.20;99.90;;;;;;5030469;28;20057;-63
2022/01/15 07:17:54;;;;;;;55.08;19.83;;;-1.20;99.90;;;;;;5028946;28;20542;-63
2022/01/15 07:20:22;;;;;;;67.20;22.55;;;-1.30;99.90;;;;;;5032655;28;20064;-65
2022/01/15 07:22:49;;;;;;;58.60;19.52;;;-1.30;99.90;;;;;;5027947;28;20050;-65
2022/01/15 07:25:17;;;;;;;52.95;19.15;;;-1.30;99.90;;;;;;5026698;28;20497;-67
2022/01/15 07:27:45;;;;;;;48.17;19.38;;;-1.30;99.90;;;;;;5030781;28;20044;-64
2022/01/15 07:30:14;;;;;;;51.33;18.95;;;-1.40;99.90;;;;;;5031398;28;20061;-64
2022/01/15 07:32:43;;;;;;;44.10;17.35;;;-1.40;99.90;;;;;;5030950;28;20048;-63
2022/01/15 07:35:14;;;;;;;46.67;18.10;;;-1.40;99.90;;;;;;5030818;28;20061;-65
2022/01/15 07:37:42;;;;;;;56.90;19.88;;;-1.40;99.90;;;;;;5030905;28;20057;-63
2022/01/15 07:40:11;;;;;;;50.85;19.92;;;-1.40;99.90;;;;;;5031108;28;20045;-64
2022/01/15 07:42:40;;;;;;;76.82;20.67;;;-1.40;99.90;;;;;;5030827;28;20072;-64
2022/01/15 07:45:11;;;;;;;76.40;22.80;;;-1.40;99.90;;;;;;5030830;28;20061;-65
2022/01/15 07:47:40;;;;;;;88.30;23.15;;;-1.30;99.90;;;;;;5028052;28;20045;-64
2022/01/15 07:50:13;;;;;;;67.73;21.93;;;-1.30;99.90;;;;;;5029796;28;20401;-64
2022/01/15 07:52:41;;;;;;;72.38;22.90;;;-1.20;99.90;;;;;;5030995;28;20053;-65
2022/01/15 07:55:09;;;;;;;59.13;21.65;;;-1.20;99.90;;;;;;5031149;28;20057;-64
2022/01/15 07:57:57;;;;;;;62.33;20.30;;;-1.20;99.90;;;;;;5030738;28;20045;-65
2022/01/15 08:00:24;;;;;;;76.07;21.98;;;-1.20;99.90;;;;;;5030851;28;20232;-64
2022/01/15 08:02:54;;;;;;;93.18;23.05;;;-1.10;99.90;;;;;;5027735;28;20049;-63
2022/01/15 08:05:22;;;;;;;;;;;-1.10;99.90;;;;;;5016203;28;20053;-64
2022/01/15 08:07:49;;;;;;;89.53;20.88;;;-1.10;99.90;;;;;;5029299;28;19929;-63
2022/01/15 08:10:17;;;;;;;111.85;22.70;;;-1.10;99.90;;;;;;5030866;28;20417;-63
2022/01/15 08:12:47;;;;;;;91.60;23.35;;;-1.10;99.90;;;;;;5030468;28;20068;-64
2022/01/15 08:15:16;;;;;;;106.38;25.33;;;-1.10;99.90;;;;;;5029171;28;20133;-66
2022/01/15 08:17:44;;;;;;;103.25;24.88;;;-1.10;99.90;;;;;;5030435;28;20505;-63
2022/01/15 08:20:12;;;;;;;93.00;20.25;;;-1.10;99.90;;;;;;5012749;28;20057;-64
2022/01/15 08:22:42;;;;;;;57.35;21.33;;;-1.10;99.90;;;;;;5020957;28;20072;-64
2022/01/15 08:25:16;;;;;;;65.60;21.15;;;-1.10;99.90;;;;;;5009865;28;20054;-64
2022/01/15 08:27:47;;;;;;;72.20;23.58;;;-1.00;99.90;;;;;;5015654;28;20529;-65
2022/01/15 08:30:16;;;;;;;75.50;22.75;;;-1.00;99.90;;;;;;5045262;28;20049;-65
2022/01/15 08:32:43;;;;;;;94.68;25.15;;;-1.00;99.90;;;;;;5030120;28;20045;-64
2022/01/15 08:35:12;;;;;;;73.50;21.30;;;-0.90;99.90;;;;;;5027541;28;20049;-63
2022/01/15 08:37:41;;;;;;;66.47;21.85;;;-0.90;99.90;;;;;;5028877;28;20044;-63
2022/01/15 08:40:12;;;;;;;68.57;22.75;;;-0.90;99.90;;;;;;5029978;28;20045;-64
2022/01/15 08:42:40;;;;;;;87.90;23.90;;;-0.80;99.90;;;;;;5029816;28;20049;-64
2022/01/15 08:45:11;;;;;;;68.80;24.33;;;-0.80;99.90;;;;;;5029656;28;20406;-64
2022/01/15 08:47:39;;;;;;;74.00;24.70;;;-0.80;99.90;;;;;;5029358;28;20045;-63
2022/01/15 08:50:09;;;;;;;68.88;23.08;;;-0.70;99.90;;;;;;5029146;28;20521;-63
2022/01/15 08:52:39;;;;;;;67.75;22.40;;;-0.60;99.90;;;;;;5030192;28;20033;-63
2022/01/15 08:55:07;;;;;;;65.80;23.63;;;-0.60;99.90;;;;;;5030209;28;20056;-70
2022/01/15 08:57:36;;;;;;;59.83;21.85;;;-0.60;99.90;;;;;;5029885;28;20092;-63
2022/01/15 09:00:08;;;;;;;60.42;21.48;;;-0.50;99.90;;;;;;5029074;28;20053;-64
2022/01/15 09:02:36;;;;;;;61.63;22.83;;;-0.50;99.90;;;;;;5028801;28;20053;-64
2022/01/15 09:05:04;;;;;;;63.53;24.17;;;-0.40;99.90;;;;;;5020041;28;20042;-64
2022/01/15 09:07:35;;;;;;;65.93;22.65;;;-0.40;99.90;;;;;;5028609;28;20049;-63
2022/01/15 09:10:03;;;;;;;54.15;22.35;;;-0.40;99.90;;;;;;5029586;28;20050;-64
2022/01/15 09:12:31;;;;;;;65.10;23.95;;;-0.30;99.90;;;;;;5029279;28;20060;-64
2022/01/15 09:15:19;;;;;;;57.25;21.75;;;-0.30;99.90;;;;;;5008492;28;20045;-64
2022/01/15 09:17:47;;;;;;;65.05;24.70;;;-0.20;99.90;;;;;;5015041;28;20049;-65
2022/01/15 09:20:15;;;;;;;59.13;23.45;;;-0.30;99.90;;;;;;5014399;28;20061;-65
2022/01/15 09:22:43;;;;;;;60.40;22.35;;;-0.30;99.90;;;;;;5015657;28;20046;-64
2022/01/15 09:25:11;;;;;;;53.00;20.90;;;-0.30;99.90;;;;;;5028140;28;20054;-64
2022/01/15 09:30:25;;;;;;;53.35;21.58;;;-0.30;99.90;;;;;;5026890;28;20044;-64
2022/01/15 09:32:55;;;;;;;49.35;21.00;;;-0.30;99.90;;;;;;5023893;28;20061;-64
2022/01/15 09:35:25;;;;;;;51.35;21.27;;;-0.30;99.90;;;;;;5013860;28;20220;-64
2022/01/15 09:37:53;;;;;;;53.13;20.55;;;-0.30;99.90;;;;;;5024308;28;20038;-64
2022/01/15 09:40:25;;;;;;;56.05;21.88;;;-0.20;99.90;;;;;;5029303;28;20057;-63
2022/01/15 09:42:54;;;;;;;60.05;22.95;;;-0.20;99.90;;;;;;5031419;28;20211;-65
2022/01/15 09:45:23;;;;;;;55.85;23.13;;;-0.20;99.90;;;;;;5032704;28;20053;-64
2022/01/15 09:47:58;;;;;;;63.75;23.33;;;-0.20;99.90;;;;;;5025468;28;20057;-64
2022/01/15 09:50:28;;;;;;;57.78;24.17;;;-0.10;99.90;;;;;;5012700;28;20050;-64
2022/01/15 09:52:55;;;;;;;;;;;-0.10;99.90;;;;;;5017338;28;20053;-63
2022/01/15 09:55:24;;;;;;;58.10;21.45;;;0.00;99.90;;;;;;5028855;28;19921;-64
2022/01/15 09:57:53;;;;;;;59.78;23.73;;;0.00;99.90;;;;;;5028461;28;20068;-64
2022/01/15 10:00:22;;;;;;;56.40;23.17;;;0.10;99.90;;;;;;5028814;28;20049;-69
2022/01/15 10:02:51;;;;;;;;;;;0.20;99.90;;;;;;5027725;28;20046;-65
2022/01/15 10:05:19;;;;;;;58.13;23.52;;;0.30;99.90;;;;;;5016733;28;19956;-65
2022/01/15 10:07:59;;;;;;;83.45;28.63;;;0.30;99.90;;;;;;5024258;28;20041;-66
2022/01/15 10:10:32;;;;;;;54.50;23.42;;;0.50;99.90;;;;;;5026780;28;20532;-63
2022/01/15 10:13:12;;;;;;;90.00;25.55;;;0.60;99.90;;;;;;5027399;28;20042;-64
2022/01/15 10:15:46;;;;;;;129.25;27.95;;;0.60;99.90;;;;;;5027322;28;20049;-67
2022/01/15 10:18:28;;;;;;;81.75;26.10;;;0.70;99.90;;;;;;5060121;28;20072;-67
2022/01/15 10:21:11;;;;;;;54.80;22.88;;;0.80;99.90;;;;;;5022468;28;20041;-64
2022/01/15 10:23:50;;;;;;;58.53;23.38;;;0.90;99.90;;;;;;5027856;28;20042;-63
2022/01/15 10:26:20;;;;;;;55.78;22.50;;;1.00;99.90;;;;;;5028151;28;20049;-64
2022/01/15 10:28:57;;;;;;;54.78;23.95;;;1.10;99.90;;;;;;5028119;28;20042;-65
2022/01/15 10:31:30;;;;;;;56.03;23.27;;;1.10;99.90;;;;;;5028561;28;20412;-65
2022/01/15 10:34:20;;;;;;;59.05;24.23;;;1.20;99.90;;;;;;5027823;28;20509;-65
2022/01/15 10:36:47;;;;;;;54.72;23.27;;;1.40;99.90;;;;;;5023451;28;20053;-64
2022/01/15 10:39:17;;;;;;;60.72;23.65;;;1.50;99.90;;;;;;5024978;28;20044;-66
2022/01/15 10:41:46;;;;;;;48.78;22.75;;;1.60;99.90;;;;;;5027554;28;20064;-65
2022/01/15 10:44:34;;;;;;;46.95;21.50;;;1.70;99.90;;;;;;5027953;28;20053;-65
2022/01/15 10:47:12;;;;;;;50.30;22.50;;;1.80;99.90;;;;;;5028114;28;20052;-65
2022/01/15 10:49:41;;;;;;;52.70;22.65;;;1.90;99.90;;;;;;5023304;28;20034;-64
2022/01/15 10:52:14;;;;;;;46.78;22.33;;;2.00;99.90;;;;;;5009805;28;20065;-67
2022/01/15 10:55:07;;;;;;;49.00;24.73;;;2.10;99.90;;;;;;5028059;28;20042;-65
2022/01/15 10:57:41;;;;;;;56.88;24.58;;;2.10;99.90;;;;;;5021467;28;20049;-64
2022/01/15 11:00:23;;;;;;;59.60;26.65;;;2.20;99.90;;;;;;5028351;28;20046;-69
2022/01/15 11:02:52;;;;;;;44.75;22.30;;;2.40;99.90;;;;;;5021764;28;20053;-64
2022/01/15 11:05:20;;;;;;;;;;;2.40;99.90;;;;;;5020918;28;20409;-65
2022/01/15 11:07:48;;;;;;;43.03;20.35;;;2.50;99.90;;;;;;5059505;28;20376;-64
2022/01/15 11:10:16;;;;;;;45.63;22.23;;;2.50;99.90;;;;;;5027795;28;20056;-64
2022/01/15 11:12:44;;;;;;;42.75;21.17;;;2.60;99.90;;;;;;5027587;28;20042;-64
2022/01/15 11:15:11;;;;;;;37.63;19.55;;;2.60;99.90;;;;;;5027594;28;20050;-64
2022/01/15 11:17:40;;;;;;;49.85;20.80;;;2.70;99.90;;;;;;5027554;28;20053;-64
2022/01/15 11:20:10;;;;;;;39.47;19.25;;;2.80;99.90;;;;;;5020101;28;20057;-65
2022/01/15 11:22:42;;;;;;;36.75;18.92;;;2.90;99.90;;;;;;5013722;28;20050;-64
2022/01/15 11:25:13;;;;;;;36.53;18.40;;;3.10;99.90;;;;;;5030102;28;20066;-64
2022/01/15 11:27:41;;;;;;;40.72;19.05;;;3.30;99.90;;;;;;5031262;28;20061;-64
2022/01/15 11:30:09;;;;;;;43.35;19.25;;;3.40;99.90;;;;;;5030086;28;20057;-64
2022/01/15 11:32:37;;;;;;;34.00;17.27;;;3.50;99.90;;;;;;5030798;28;20412;-64
2022/01/15 11:35:07;;;;;;;33.00;17.88;;;3.70;99.90;;;;;;5024300;28;20053;-65
2022/01/15 11:37:53;;;;;;;39.30;18.25;;;3.90;99.90;;;;;;5015061;28;20536;-64
2022/01/15 11:40:36;;;;;;;34.55;18.83;;;4.00;99.90;;;;;;5030081;28;20045;-64
2022/01/15 11:43:25;;;;;;;33.75;17.17;;;4.10;99.90;;;;;;5030966;28;20050;-64
2022/01/15 11:45:54;;;;;;;;;;;4.00;99.90;;;;;;5030985;28;20041;-64
2022/01/15 11:48:27;;;;;;;38.95;18.25;;;3.90;99.90;;;;;;5030906;28;19925;-64
2022/01/15 11:51:13;;;;;;;37.33;18.77;;;3.70;99.90;;;;;;5018397;28;20058;-63
2022/01/15 11:53:44;;;;;;;37.20;18.92;;;3.60;99.90;;;;;;5024518;28;20064;-64
2022/01/15 11:56:20;;;;;;;34.30;17.38;;;3.50;99.90;;;;;;5030825;28;20049;-64
2022/01/15 11:58:48;;;;;;;35.88;17.30;;;3.40;99.90;;;;;;5030692;28;20049;-64
2022/01/15 12:01:34;;;;;;;43.60;19.42;;;3.40;99.90;;;;;;5030809;28;20392;-64
2022/01/15 12:04:28;;;;;;;36.78;19.20;;;3.30;99.90;;;;;;5030528;28;20052;-64
2022/01/15 12:07:04;;;;;;;41.20;20.02;;;3.20;99.90;;;;;;5010963;28;20053;-65
2022/01/15 12:09:43;;;;;;;37.13;19.25;;;3.20;99.90;;;;;;5029946;28;20046;-64
2022/01/15 12:14:56;;;;;;;42.42;20.27;;;3.20;99.90;;;;;;5028813;28;20539;-65
2022/01/15 12:17:42;;;;;;;43.97;22.50;;;3.20;99.90;;;;;;5030300;28;20045;-65
2022/01/15 12:20:21;;;;;;;64.55;24.25;;;3.20;99.90;;;;;;5019760;28;20046;-64
2022/01/15 12:22:58;;;;;;;45.65;22.58;;;3.10;99.90;;;;;;5025117;28;20041;-65
2022/01/15 12:25:26;;;;;;;42.63;21.35;;;3.10;99.90;;;;;;5024809;28;20050;-65
2022/01/15 12:28:04;;;;;;;42.67;19.90;;;3.00;99.90;;;;;;5025234;28;20242;-65
2022/01/15 12:30:36;;;;;;;43.58;21.67;;;3.00;99.90;;;;;;5025826;28;20045;-64
2022/01/15 12:33:05;;;;;;;57.33;26.10;;;3.10;99.90;;;;;;5015994;28;20050;-65
2022/01/15 12:35:56;;;;;;;58.17;27.13;;;3.00;99.90;;;;;;5018240;28;20064;-66
2022/01/15 12:38:26;;;;;;;48.65;22.55;;;3.10;99.90;;;;;;5025236;28;20044;-65
2022/01/15 12:41:02;;;;;;;71.32;33.75;;;3.10;99.90;;;;;;5029949;28;20389;-65
2022/01/15 12:43:29;;;;;;;43.70;22.80;;;3.10;99.90;;;;;;5003229;28;20421;-64
2022/01/15 12:46:03;;;;;;;44.27;23.63;;;3.20;99.90;;;;;;5015149;28;20033;-64
2022/01/15 12:48:32;;;;;;;46.55;23.33;;;3.30;99.90;;;;;;5020747;28;20065;-64
2022/01/15 12:51:01;;;;;;;51.67;23.50;;;3.30;99.90;;;;;;5021139;28;20049;-65
2022/01/15 12:53:33;;;;;;;48.55;22.95;;;3.40;99.90;;;;;;5016578;28;20049;-65
2022/01/15 12:56:06;;;;;;;45.05;24.42;;;3.50;99.90;;;;;;5022782;28;20072;-65
2022/01/15 12:58:33;;;;;;;52.22;26.55;;;3.60;99.90;;;;;;5015075;28;20060;-65
2022/01/15 13:01:03;;;;;;;59.40;29.95;;;3.60;99.90;;;;;;5011304;28;20057;-65
2022/01/15 13:03:31;;;;;;;54.80;28.27;;;3.70;99.90;;;;;;5027367;28;20434;-65
2022/01/15 13:06:02;;;;;;;48.15;24.27;;;3.70;99.90;;;;;;5028592;28;20049;-65
2022/01/15 13:08:41;;;;;;;40.67;22.70;;;3.60;99.90;;;;;;5027992;28;20056;-66
2022/01/15 13:13:46;;;;;;;55.78;28.67;;;3.70;99.90;;;;;;5013147;28;22093;-69
2022/01/15 13:16:18;;;;;;;70.93;33.15;;;3.80;99.90;;;;;;5020018;28;20061;-67
2022/01/15 13:18:48;;;;;;;50.13;26.00;;;3.70;99.90;;;;;;5020883;28;20052;-68